createdAt,value
2019-02-27T00:00:11.433Z,0.00
2019-02-27T00:01:09.725Z,0.00
2019-02-27T00:02:09.668Z,0.00
2019-02-27T00:03:09.634Z,0.00
2019-02-27T00:04:09.623Z,0.00
2019-02-27T00:05:09.617Z,0.00
2019-02-27T00:06:09.605Z,0.00
2019-02-27T00:07:09.660Z,0.00
2019-02-27T00:08:09.583Z,0.00
2019-02-27T00:09:09.570Z,0.00
2019-02-27T00:10:09.565Z,0.00
2019-02-27T00:11:09.956Z,0.00
2019-02-27T00:12:09.554Z,0.00
2019-02-27T00:13:09.573Z,0.00
2019-02-27T00:14:09.510Z,0.00
2019-02-27T00:15:09.502Z,0.00
2019-02-27T00:16:11.155Z,0.00
2019-02-27T00:17:09.502Z,0.00
2019-02-27T00:18:09.469Z,0.00
2019-02-27T00:19:09.522Z,0.00
2019-02-27T00:20:09.443Z,0.00
2019-02-27T00:21:11.048Z,0.00
2019-02-27T00:22:09.477Z,0.00
2019-02-27T00:23:09.410Z,0.00
2019-02-27T00:24:09.422Z,0.00
2019-02-27T00:25:09.390Z,0.00
2019-02-27T00:26:09.609Z,0.00
2019-02-27T00:27:09.373Z,0.00
2019-02-27T00:28:09.426Z,0.00
2019-02-27T00:29:09.346Z,0.00
2019-02-27T00:30:09.334Z,0.00
2019-02-27T00:31:11.563Z,0.00
2019-02-27T00:32:09.341Z,0.00
2019-02-27T00:33:09.328Z,0.00
2019-02-27T00:34:09.290Z,0.00
2019-02-27T00:35:09.286Z,0.00
2019-02-27T00:36:11.964Z,0.00
2019-02-27T00:37:09.256Z,0.00
2019-02-27T00:38:09.313Z,0.00
2019-02-27T00:39:09.238Z,0.00
2019-02-27T00:40:09.227Z,0.00
2019-02-27T00:41:11.990Z,0.00
2019-02-27T00:42:09.200Z,0.00
2019-02-27T00:43:09.215Z,0.00
2019-02-27T00:44:09.228Z,0.00
2019-02-27T00:45:09.173Z,0.00
2019-02-27T00:46:10.763Z,0.00
2019-02-27T00:47:09.158Z,0.00
2019-02-27T00:48:09.160Z,0.00
2019-02-27T00:49:09.126Z,0.00
2019-02-27T00:50:09.157Z,0.00
2019-02-27T00:51:09.653Z,0.00
2019-02-27T00:52:09.095Z,0.00
2019-02-27T00:53:09.105Z,0.00
2019-02-27T00:54:09.074Z,0.00
2019-02-27T00:55:09.065Z,0.00
2019-02-27T00:56:11.948Z,0.00
2019-02-27T00:57:09.051Z,0.00
2019-02-27T00:58:09.051Z,0.00
2019-02-27T00:59:09.017Z,0.00
2019-02-27T01:00:09.020Z,0.00
2019-02-27T01:01:10.044Z,0.00
2019-02-27T01:02:08.986Z,0.00
2019-02-27T01:03:08.998Z,0.00
2019-02-27T01:04:08.961Z,0.00
2019-02-27T01:05:09.447Z,0.00
2019-02-27T01:06:08.945Z,0.00
2019-02-27T01:07:08.958Z,0.00
2019-02-27T01:08:08.944Z,0.00
2019-02-27T01:09:08.928Z,0.00
2019-02-27T01:10:12.016Z,0.00
2019-02-27T01:11:08.891Z,0.00
2019-02-27T01:12:08.883Z,0.00
2019-02-27T01:13:08.919Z,0.00
2019-02-27T01:14:08.854Z,0.00
2019-02-27T01:15:10.536Z,0.00
2019-02-27T01:16:08.846Z,0.00
2019-02-27T01:17:08.821Z,0.00
2019-02-27T01:18:08.838Z,0.00
2019-02-27T01:19:08.843Z,0.00
2019-02-27T01:20:11.183Z,0.00
2019-02-27T01:21:08.788Z,0.00
2019-02-27T01:22:08.767Z,0.00
2019-02-27T01:23:10.934Z,0.00
2019-02-27T01:24:08.746Z,0.00
2019-02-27T01:25:08.732Z,0.00
2019-02-27T01:26:08.758Z,0.00
2019-02-27T01:27:08.714Z,0.00
2019-02-27T01:28:10.963Z,0.00
2019-02-27T01:29:08.696Z,0.00
2019-02-27T01:30:08.683Z,0.00
2019-02-27T01:31:08.668Z,0.00
2019-02-27T01:32:08.703Z,0.00
2019-02-27T01:33:08.678Z,0.00
2019-02-27T01:34:11.141Z,0.00
2019-02-27T01:35:08.625Z,0.00
2019-02-27T01:36:08.614Z,0.00
2019-02-27T01:37:08.600Z,0.00
2019-02-27T01:38:08.636Z,0.00
2019-02-27T01:39:09.019Z,0.00
2019-02-27T01:40:08.571Z,0.00
2019-02-27T01:41:08.558Z,0.00
2019-02-27T01:42:08.547Z,0.00
2019-02-27T01:43:08.565Z,0.00
2019-02-27T01:44:11.096Z,0.00
2019-02-27T01:45:09.516Z,0.00
2019-02-27T01:46:08.505Z,0.00
2019-02-27T01:47:08.491Z,0.00
2019-02-27T01:48:09.222Z,0.00
2019-02-27T01:49:08.469Z,0.00
2019-02-27T01:50:08.500Z,0.00
2019-02-27T01:51:08.452Z,0.00
2019-02-27T01:52:08.445Z,0.00
2019-02-27T01:53:08.461Z,0.00
2019-02-27T01:54:08.417Z,0.00
2019-02-27T01:55:08.407Z,0.00
2019-02-27T01:56:08.499Z,0.00
2019-02-27T01:57:08.383Z,0.00
2019-02-27T01:58:09.567Z,0.00
2019-02-27T01:59:08.385Z,0.00
2019-02-27T02:00:08.360Z,0.00
2019-02-27T02:01:08.341Z,0.00
2019-02-27T02:02:08.389Z,0.00
2019-02-27T02:03:08.319Z,0.00
2019-02-27T02:04:08.330Z,0.00
2019-02-27T02:05:08.334Z,0.00
2019-02-27T02:06:08.281Z,0.00
2019-02-27T02:07:08.276Z,0.00
2019-02-27T02:08:08.316Z,0.00
2019-02-27T02:09:08.279Z,0.00
2019-02-27T02:10:08.237Z,0.00
2019-02-27T02:11:08.227Z,0.00
2019-02-27T02:12:08.775Z,0.00
2019-02-27T02:13:08.208Z,0.00
2019-02-27T02:14:08.261Z,0.00
2019-02-27T02:15:08.182Z,0.00
2019-02-27T02:16:08.175Z,0.00
2019-02-27T02:17:08.164Z,0.00
2019-02-27T02:18:08.150Z,0.00
2019-02-27T02:19:08.167Z,0.00
2019-02-27T02:20:08.182Z,0.00
2019-02-27T02:21:08.117Z,0.00
2019-02-27T02:22:08.877Z,0.00
2019-02-27T02:23:08.099Z,0.00
2019-02-27T02:24:08.113Z,0.00
2019-02-27T02:25:08.081Z,0.00
2019-02-27T02:26:08.074Z,0.00
2019-02-27T02:27:08.786Z,0.00
2019-02-27T02:28:08.085Z,0.00
2019-02-27T02:29:08.056Z,0.00
2019-02-27T02:30:08.020Z,0.00
2019-02-27T02:31:08.011Z,0.00
2019-02-27T02:32:08.026Z,0.00
2019-02-27T02:33:07.998Z,0.00
2019-02-27T02:34:08.064Z,0.00
2019-02-27T02:35:07.977Z,0.00
2019-02-27T02:36:07.957Z,0.00
2019-02-27T02:37:07.953Z,0.00
2019-02-27T02:38:12.125Z,0.00
2019-02-27T02:39:08.981Z,0.00
2019-02-27T02:40:07.909Z,0.00
2019-02-27T02:41:09.224Z,0.00
2019-02-27T02:42:07.948Z,0.00
2019-02-27T02:43:07.876Z,0.00
2019-02-27T02:44:07.867Z,0.00
2019-02-27T02:45:07.887Z,0.00
2019-02-27T02:46:08.858Z,0.00
2019-02-27T02:47:07.868Z,0.00
2019-02-27T02:48:07.822Z,0.00
2019-02-27T02:49:08.502Z,0.00
2019-02-27T02:50:07.821Z,0.00
2019-02-27T02:51:07.796Z,0.00
2019-02-27T02:52:07.777Z,0.00
2019-02-27T02:53:07.824Z,0.00
2019-02-27T02:54:07.756Z,0.00
2019-02-27T02:55:11.961Z,0.00
2019-02-27T02:56:07.734Z,0.00
2019-02-27T02:57:07.724Z,0.00
2019-02-27T02:58:11.364Z,0.00
2019-02-27T02:59:07.702Z,0.00
2019-02-27T03:00:07.749Z,0.00
2019-02-27T03:01:14.155Z,0.00
2019-02-27T03:02:08.669Z,0.00
2019-02-27T03:03:07.659Z,0.00
2019-02-27T03:04:12.568Z,0.00
2019-02-27T03:05:08.639Z,0.00
2019-02-27T03:06:07.691Z,0.00
2019-02-27T03:07:10.949Z,0.00
2019-02-27T03:08:07.600Z,0.00
2019-02-27T03:09:07.605Z,0.00
2019-02-27T03:10:08.302Z,0.00
2019-02-27T03:11:07.605Z,0.00
2019-02-27T03:12:07.615Z,0.00
2019-02-27T03:13:07.568Z,0.00
2019-02-27T03:14:07.538Z,0.00
2019-02-27T03:15:07.527Z,0.00
2019-02-27T03:16:07.548Z,0.00
2019-02-27T03:17:07.508Z,0.00
2019-02-27T03:18:07.536Z,0.00
2019-02-27T03:19:07.483Z,0.00
2019-02-27T03:20:07.472Z,0.00
2019-02-27T03:21:07.497Z,0.00
2019-02-27T03:22:07.455Z,0.00
2019-02-27T03:23:07.445Z,0.00
2019-02-27T03:24:07.466Z,0.00
2019-02-27T03:25:07.427Z,0.00
2019-02-27T03:26:07.400Z,0.00
2019-02-27T03:27:07.424Z,0.00
2019-02-27T03:28:07.381Z,0.00
2019-02-27T03:29:07.381Z,0.00
2019-02-27T03:30:07.369Z,0.00
2019-02-27T03:31:16.241Z,0.00
2019-02-27T03:32:08.360Z,0.00
2019-02-27T03:33:07.327Z,0.00
2019-02-27T03:34:09.066Z,0.00
2019-02-27T03:35:07.308Z,0.00
2019-02-27T03:36:07.292Z,0.00
2019-02-27T03:37:07.323Z,0.00
2019-02-27T03:38:08.309Z,0.00
2019-02-27T03:39:07.260Z,0.00
2019-02-27T03:40:10.792Z,0.00
2019-02-27T03:41:07.239Z,0.00
2019-02-27T03:42:07.261Z,0.00
2019-02-27T03:43:10.166Z,0.00
2019-02-27T03:44:07.227Z,0.00
2019-02-27T03:45:07.192Z,0.00
2019-02-27T03:46:07.312Z,0.00
2019-02-27T03:47:07.167Z,0.00
2019-02-27T03:48:07.184Z,0.00
2019-02-27T03:49:07.143Z,0.00
2019-02-27T03:50:07.185Z,0.00
2019-02-27T03:51:07.121Z,0.00
2019-02-27T03:52:07.115Z,0.00
2019-02-27T03:53:10.849Z,0.00
2019-02-27T03:54:07.088Z,0.00
2019-02-27T03:55:07.078Z,0.00
2019-02-27T03:56:09.734Z,0.00
2019-02-27T03:57:07.100Z,0.00
2019-02-27T03:58:07.068Z,0.00
2019-02-27T03:59:07.569Z,0.00
2019-02-27T04:00:07.022Z,0.00
2019-02-27T04:01:07.011Z,0.00
2019-02-27T04:02:07.048Z,0.00
2019-02-27T04:03:07.014Z,0.00
2019-02-27T04:04:06.982Z,0.00
2019-02-27T04:05:07.580Z,0.00
2019-02-27T04:06:06.968Z,0.00
2019-02-27T04:07:06.942Z,0.00
2019-02-27T04:08:08.603Z,0.00
2019-02-27T04:09:06.949Z,0.00
2019-02-27T04:10:06.925Z,0.00
2019-02-27T04:11:06.978Z,0.00
2019-02-27T04:12:06.890Z,0.00
2019-02-27T04:13:06.876Z,0.00
2019-02-27T04:14:06.899Z,0.00
2019-02-27T04:15:06.863Z,0.00
2019-02-27T04:16:06.843Z,0.00
2019-02-27T04:17:07.705Z,0.00
2019-02-27T04:18:06.829Z,0.00
2019-02-27T04:19:06.835Z,0.00
2019-02-27T04:20:06.803Z,0.00
2019-02-27T04:21:06.788Z,0.00
2019-02-27T04:22:06.775Z,0.00
2019-02-27T04:23:11.182Z,0.00
2019-02-27T04:24:07.775Z,0.00
2019-02-27T04:25:06.752Z,0.00
2019-02-27T04:26:06.797Z,0.00
2019-02-27T04:27:06.719Z,0.00
2019-02-27T04:28:06.712Z,0.00
2019-02-27T04:29:08.509Z,0.00
2019-02-27T04:30:06.710Z,0.00
2019-02-27T04:31:06.675Z,0.00
2019-02-27T04:32:09.522Z,0.00
2019-02-27T04:33:07.653Z,0.00
2019-02-27T04:34:06.670Z,0.00
2019-02-27T04:35:06.921Z,0.00
2019-02-27T04:36:06.624Z,0.00
2019-02-27T04:37:06.610Z,0.00
2019-02-27T04:38:06.594Z,0.00
2019-02-27T04:39:06.610Z,0.00
2019-02-27T04:40:10.842Z,0.00
2019-02-27T04:41:06.566Z,0.00
2019-02-27T04:42:06.610Z,0.00
2019-02-27T04:43:06.539Z,0.00
2019-02-27T04:44:06.553Z,0.00
2019-02-27T04:45:06.517Z,0.00
2019-02-27T04:46:06.536Z,0.00
2019-02-27T04:47:06.501Z,0.00
2019-02-27T04:48:06.595Z,0.00
2019-02-27T04:49:06.493Z,0.00
2019-02-27T04:50:06.460Z,0.00
2019-02-27T04:51:06.447Z,0.00
2019-02-27T04:52:06.437Z,0.00
2019-02-27T04:53:06.428Z,0.00
2019-02-27T04:54:07.404Z,0.00
2019-02-27T04:55:06.403Z,0.00
2019-02-27T04:56:06.391Z,0.00
2019-02-27T04:57:06.381Z,0.00
2019-02-27T04:58:08.581Z,0.00
2019-02-27T04:59:06.365Z,0.00
2019-02-27T05:00:06.458Z,0.00
2019-02-27T05:01:06.338Z,0.00
2019-02-27T05:02:06.327Z,0.00
2019-02-27T05:03:06.314Z,0.00
2019-02-27T05:04:06.304Z,0.00
2019-02-27T05:05:08.601Z,0.00
2019-02-27T05:06:06.320Z,0.00
2019-02-27T05:07:06.336Z,0.00
2019-02-27T05:08:06.265Z,0.00
2019-02-27T05:09:06.250Z,0.00
2019-02-27T05:10:07.271Z,0.00
2019-02-27T05:11:06.227Z,0.00
2019-02-27T05:12:06.220Z,0.00
2019-02-27T05:13:06.262Z,0.00
2019-02-27T05:14:06.194Z,0.00
2019-02-27T05:15:06.209Z,0.00
2019-02-27T05:16:06.171Z,0.00
2019-02-27T05:17:06.159Z,0.00
2019-02-27T05:18:06.149Z,0.00
2019-02-27T05:19:06.156Z,0.00
2019-02-27T05:20:06.149Z,0.00
2019-02-27T05:21:06.119Z,0.00
2019-02-27T05:22:06.110Z,0.00
2019-02-27T05:23:06.094Z,0.00
2019-02-27T05:24:07.661Z,0.00
2019-02-27T05:25:06.159Z,0.00
2019-02-27T05:26:06.058Z,0.00
2019-02-27T05:27:06.046Z,0.00
2019-02-27T05:28:06.035Z,0.00
2019-02-27T05:29:06.026Z,0.00
2019-02-27T05:30:06.039Z,0.00
2019-02-27T05:31:06.073Z,0.00
2019-02-27T05:32:05.990Z,0.00
2019-02-27T05:33:05.983Z,0.00
2019-02-27T05:34:05.969Z,0.00
2019-02-27T05:35:05.985Z,0.00
2019-02-27T05:36:05.957Z,0.00
2019-02-27T05:37:06.073Z,0.00
2019-02-27T05:38:05.923Z,0.00
2019-02-27T05:39:05.911Z,0.00
2019-02-27T05:40:05.954Z,0.00
2019-02-27T05:41:05.888Z,0.00
2019-02-27T05:42:06.384Z,0.00
2019-02-27T05:43:05.918Z,0.00
2019-02-27T05:44:05.857Z,0.00
2019-02-27T05:45:05.868Z,0.00
2019-02-27T05:46:05.834Z,0.00
2019-02-27T05:47:05.829Z,0.00
2019-02-27T05:48:05.886Z,0.00
2019-02-27T05:49:05.807Z,4.00
2019-02-27T05:50:05.825Z,4.00
2019-02-27T05:51:07.537Z,0.00
2019-02-27T05:52:05.770Z,4.00
2019-02-27T05:53:05.756Z,4.00
2019-02-27T05:54:05.803Z,4.00
2019-02-27T05:55:06.373Z,4.00
2019-02-27T05:56:05.745Z,4.00
2019-02-27T05:57:05.716Z,4.00
2019-02-27T05:58:05.699Z,4.00
2019-02-27T05:59:05.700Z,8.00
2019-02-27T06:00:07.098Z,12.00
2019-02-27T06:01:05.924Z,16.00
2019-02-27T06:02:05.663Z,20.00
2019-02-27T06:03:05.641Z,20.00
2019-02-27T06:04:05.629Z,28.00
2019-02-27T06:05:05.623Z,32.00
2019-02-27T06:06:06.758Z,40.00
2019-02-27T06:07:05.595Z,48.00
2019-02-27T06:08:05.590Z,60.00
2019-02-27T06:09:10.069Z,68.00
2019-02-27T06:10:05.629Z,84.00
2019-02-27T06:11:05.577Z,96.00
2019-02-27T06:12:06.848Z,112.00
2019-02-27T06:13:05.531Z,132.00
2019-02-27T06:14:05.523Z,156.00
2019-02-27T06:15:05.513Z,180.00
2019-02-27T06:16:08.948Z,208.00
2019-02-27T06:17:05.487Z,236.00
2019-02-27T06:18:05.476Z,268.00
2019-02-27T06:19:05.497Z,300.00
2019-02-27T06:20:07.692Z,336.00
2019-02-27T06:21:05.464Z,376.00
2019-02-27T06:22:05.989Z,416.00
2019-02-27T06:23:07.247Z,460.00
2019-02-27T06:24:05.418Z,500.00
2019-02-27T06:25:05.416Z,548.00
2019-02-27T06:26:05.546Z,592.00
2019-02-27T06:27:06.283Z,640.00
2019-02-27T06:28:05.364Z,696.00
2019-02-27T06:29:05.355Z,748.00
2019-02-27T06:30:05.367Z,800.00
2019-02-27T06:31:05.351Z,860.00
2019-02-27T06:32:05.373Z,920.00
2019-02-27T06:33:05.312Z,980.00
2019-02-27T06:34:05.295Z,1044.00
2019-02-27T06:35:05.287Z,1112.00
2019-02-27T06:36:07.704Z,1180.00
2019-02-27T06:37:05.270Z,1248.00
2019-02-27T06:38:05.306Z,1320.00
2019-02-27T06:39:05.242Z,1392.00
2019-02-27T06:40:07.392Z,1460.00
2019-02-27T06:41:05.245Z,1528.00
2019-02-27T06:42:05.232Z,1596.00
2019-02-27T06:43:05.195Z,1668.00
2019-02-27T06:44:05.192Z,1740.00
2019-02-27T06:45:05.249Z,1808.00
2019-02-27T06:46:05.203Z,1864.00
2019-02-27T06:47:07.119Z,1924.00
2019-02-27T06:48:09.330Z,1988.00
2019-02-27T06:49:06.128Z,2052.00
2019-02-27T06:50:05.124Z,2116.00
2019-02-27T06:51:05.139Z,2176.00
2019-02-27T06:52:08.988Z,2236.00
2019-02-27T06:53:05.092Z,2292.00
2019-02-27T06:54:05.078Z,2352.00
2019-02-27T06:55:05.066Z,2412.00
2019-02-27T06:56:05.056Z,2476.00
2019-02-27T06:57:07.749Z,2536.00
2019-02-27T06:58:05.161Z,2592.00
2019-02-27T06:59:05.020Z,2652.00
2019-02-27T07:00:05.010Z,2708.00
2019-02-27T07:01:09.174Z,2764.00
2019-02-27T07:02:06.046Z,2820.00
2019-02-27T07:03:04.979Z,2872.00
2019-02-27T07:04:05.454Z,2920.00
2019-02-27T07:05:05.126Z,2972.00
2019-02-27T07:06:05.070Z,3020.00
2019-02-27T07:07:04.964Z,3064.00
2019-02-27T07:08:05.339Z,3112.00
2019-02-27T07:09:05.115Z,3160.00
2019-02-27T07:10:04.990Z,3204.00
2019-02-27T07:11:10.822Z,3248.00
2019-02-27T07:12:07.245Z,3284.00
2019-02-27T07:13:04.869Z,3332.00
2019-02-27T07:14:04.965Z,3372.00
2019-02-27T07:15:04.851Z,3420.00
2019-02-27T07:16:04.839Z,3460.00
2019-02-27T07:17:04.843Z,3496.00
2019-02-27T07:18:06.140Z,3532.00
2019-02-27T07:19:04.824Z,3572.00
2019-02-27T07:20:04.787Z,3596.00
2019-02-27T07:21:04.775Z,3628.00
2019-02-27T07:22:06.251Z,3656.00
2019-02-27T07:23:04.759Z,3684.00
2019-02-27T07:24:04.745Z,3712.00
2019-02-27T07:25:06.621Z,3736.00
2019-02-27T07:26:04.720Z,3756.00
2019-02-27T07:27:04.738Z,3784.00
2019-02-27T07:28:08.416Z,3816.00
2019-02-27T07:29:04.709Z,3836.00
2019-02-27T07:30:04.880Z,3856.00
2019-02-27T07:31:04.665Z,3880.00
2019-02-27T07:32:04.680Z,3900.00
2019-02-27T07:33:06.738Z,3916.00
2019-02-27T07:34:04.633Z,3936.00
2019-02-27T07:35:04.633Z,3956.00
2019-02-27T07:36:04.610Z,3976.00
2019-02-27T07:37:04.602Z,3996.00
2019-02-27T07:38:04.609Z,4016.00
2019-02-27T07:39:04.599Z,4032.00
2019-02-27T07:40:07.943Z,4048.00
2019-02-27T07:41:04.552Z,4068.00
2019-02-27T07:42:04.550Z,4084.00
2019-02-27T07:43:05.765Z,4100.00
2019-02-27T07:44:04.551Z,4124.00
2019-02-27T07:45:04.510Z,4144.00
2019-02-27T07:46:04.501Z,4164.00
2019-02-27T07:47:04.490Z,4184.00
2019-02-27T07:48:04.501Z,4204.00
2019-02-27T07:49:04.506Z,4224.00
2019-02-27T07:50:06.361Z,4244.00
2019-02-27T07:51:04.481Z,4264.00
2019-02-27T07:52:04.431Z,4288.00
2019-02-27T07:53:04.453Z,4304.00
2019-02-27T07:54:04.411Z,4324.00
2019-02-27T07:55:15.547Z,4340.00
2019-02-27T07:56:05.385Z,4356.00
2019-02-27T07:57:04.375Z,4376.00
2019-02-27T07:58:04.392Z,4392.00
2019-02-27T07:59:04.356Z,4408.00
2019-02-27T08:00:04.366Z,4424.00
2019-02-27T08:01:04.752Z,4444.00
2019-02-27T08:02:04.328Z,4456.00
2019-02-27T08:03:09.215Z,4472.00
2019-02-27T08:04:05.301Z,4492.00
2019-02-27T08:05:04.291Z,4504.00
2019-02-27T08:06:04.320Z,4516.00
2019-02-27T08:07:04.266Z,4536.00
2019-02-27T08:08:04.282Z,4548.00
2019-02-27T08:09:04.294Z,4560.00
2019-02-27T08:10:04.789Z,4572.00
2019-02-27T08:11:04.234Z,4584.00
2019-02-27T08:12:04.238Z,4592.00
2019-02-27T08:13:04.247Z,4604.00
2019-02-27T08:14:04.200Z,4616.00
2019-02-27T08:15:04.503Z,4620.00
2019-02-27T08:16:04.169Z,4632.00
2019-02-27T08:17:16.779Z,4644.00
2019-02-27T08:18:05.254Z,4652.00
2019-02-27T08:19:04.133Z,4660.00
2019-02-27T08:20:04.168Z,4672.00
2019-02-27T08:21:04.114Z,4684.00
2019-02-27T08:22:04.106Z,4688.00
2019-02-27T08:23:04.145Z,4696.00
2019-02-27T08:24:07.480Z,4708.00
2019-02-27T08:25:04.068Z,4716.00
2019-02-27T08:26:05.115Z,4720.00
2019-02-27T08:27:04.044Z,4728.00
2019-02-27T08:28:04.035Z,4736.00
2019-02-27T08:29:04.055Z,4740.00
2019-02-27T08:30:04.014Z,4744.00
2019-02-27T08:31:04.017Z,4760.00
2019-02-27T08:32:05.485Z,4772.00
2019-02-27T08:33:08.165Z,4784.00
2019-02-27T08:34:04.003Z,4792.00
2019-02-27T08:35:04.008Z,4800.00
2019-02-27T08:36:04.028Z,4812.00
2019-02-27T08:37:03.958Z,4824.00
2019-02-27T08:38:03.935Z,4832.00
2019-02-27T08:39:03.947Z,4840.00
2019-02-27T08:40:03.947Z,4852.00
2019-02-27T08:41:03.983Z,4860.00
2019-02-27T08:42:04.147Z,4868.00
2019-02-27T08:43:03.881Z,4880.00
2019-02-27T08:44:03.898Z,4884.00
2019-02-27T08:45:03.857Z,4900.00
2019-02-27T08:46:03.850Z,4904.00
2019-02-27T08:47:04.317Z,4924.00
2019-02-27T08:48:03.822Z,4928.00
2019-02-27T08:49:03.832Z,4936.00
2019-02-27T08:50:03.827Z,4948.00
2019-02-27T08:51:08.383Z,4956.00
2019-02-27T08:52:03.779Z,4968.00
2019-02-27T08:53:03.768Z,4976.00
2019-02-27T08:54:03.803Z,4980.00
2019-02-27T08:55:05.723Z,4992.00
2019-02-27T08:56:03.732Z,5000.00
2019-02-27T08:57:03.723Z,5004.00
2019-02-27T08:58:03.761Z,5016.00
2019-02-27T08:59:05.815Z,5024.00
2019-02-27T09:00:03.704Z,5032.00
2019-02-27T09:01:03.726Z,5048.00
2019-02-27T09:02:03.667Z,5048.00
2019-02-27T09:03:03.842Z,5056.00
2019-02-27T09:04:03.689Z,5064.00
2019-02-27T09:05:03.641Z,5064.00
2019-02-27T09:06:03.631Z,5084.00
2019-02-27T09:07:03.755Z,5092.00
2019-02-27T09:08:03.632Z,5104.00
2019-02-27T09:09:03.686Z,5112.00
2019-02-27T09:10:03.588Z,5120.00
2019-02-27T09:11:06.594Z,5128.00
2019-02-27T09:12:03.609Z,5140.00
2019-02-27T09:13:05.889Z,5148.00
2019-02-27T09:14:03.684Z,5160.00
2019-02-27T09:15:03.551Z,5172.00
2019-02-27T09:16:03.548Z,5172.00
2019-02-27T09:17:03.508Z,5188.00
2019-02-27T09:18:03.495Z,5200.00
2019-02-27T09:19:03.611Z,5200.00
2019-02-27T09:20:03.474Z,5208.00
2019-02-27T09:21:03.471Z,5216.00
2019-02-27T09:22:03.455Z,5236.00
2019-02-27T09:23:03.447Z,5228.00
2019-02-27T09:24:03.427Z,5240.00
2019-02-27T09:25:03.447Z,5248.00
2019-02-27T09:26:03.519Z,5256.00
2019-02-27T09:27:03.401Z,5268.00
2019-02-27T09:28:03.604Z,5276.00
2019-02-27T09:29:03.387Z,5276.00
2019-02-27T09:30:03.385Z,5300.00
2019-02-27T09:31:04.426Z,5300.00
2019-02-27T09:32:03.339Z,5312.00
2019-02-27T09:33:03.332Z,5312.00
2019-02-27T09:34:03.320Z,5324.00
2019-02-27T09:35:03.334Z,5332.00
2019-02-27T09:36:03.298Z,5344.00
2019-02-27T09:37:03.285Z,5356.00
2019-02-27T09:38:03.299Z,5364.00
2019-02-27T09:39:03.264Z,5372.00
2019-02-27T09:40:05.697Z,5384.00
2019-02-27T09:41:03.244Z,5392.00
2019-02-27T09:42:03.257Z,5400.00
2019-02-27T09:43:03.221Z,5404.00
2019-02-27T09:44:03.214Z,5412.00
2019-02-27T09:45:03.227Z,5420.00
2019-02-27T09:46:03.187Z,5428.00
2019-02-27T09:47:03.193Z,5428.00
2019-02-27T09:48:03.167Z,5440.00
2019-02-27T09:49:06.857Z,5444.00
2019-02-27T09:50:03.176Z,5456.00
2019-02-27T09:51:03.153Z,5460.00
2019-02-27T09:52:03.169Z,5464.00
2019-02-27T09:53:03.649Z,5472.00
2019-02-27T09:54:03.119Z,5480.00
2019-02-27T09:55:03.113Z,5480.00
2019-02-27T09:56:03.077Z,5484.00
2019-02-27T09:57:03.100Z,5488.00
2019-02-27T09:58:03.063Z,5504.00
2019-02-27T09:59:03.066Z,5504.00
2019-02-27T10:00:03.078Z,5500.00
2019-02-27T10:01:03.284Z,5504.00
2019-02-27T10:02:03.071Z,5508.00
2019-02-27T10:03:03.048Z,5512.00
2019-02-27T10:04:02.993Z,5520.00
2019-02-27T10:05:03.773Z,5516.00
2019-02-27T10:06:02.975Z,5524.00
2019-02-27T10:07:02.976Z,5524.00
2019-02-27T10:08:02.949Z,5528.00
2019-02-27T10:09:02.940Z,5528.00
2019-02-27T10:10:02.953Z,5536.00
2019-02-27T10:11:02.915Z,5536.00
2019-02-27T10:12:02.914Z,5536.00
2019-02-27T10:13:04.021Z,5536.00
2019-02-27T10:14:02.905Z,5544.00
2019-02-27T10:15:02.872Z,5544.00
2019-02-27T10:16:03.720Z,5544.00
2019-02-27T10:17:02.848Z,5540.00
2019-02-27T10:18:02.848Z,5544.00
2019-02-27T10:19:02.836Z,5552.00
2019-02-27T10:20:02.982Z,5548.00
2019-02-27T10:21:02.867Z,5548.00
2019-02-27T10:22:02.796Z,5540.00
2019-02-27T10:23:02.804Z,5528.00
2019-02-27T10:24:04.850Z,5544.00
2019-02-27T10:25:02.763Z,5544.00
2019-02-27T10:26:02.796Z,5536.00
2019-02-27T10:27:03.216Z,5540.00
2019-02-27T10:28:04.350Z,5536.00
2019-02-27T10:29:02.733Z,5532.00
2019-02-27T10:30:11.146Z,5532.00
2019-02-27T10:31:03.729Z,5520.00
2019-02-27T10:32:02.689Z,5528.00
2019-02-27T10:33:03.503Z,5516.00
2019-02-27T10:34:02.669Z,5520.00
2019-02-27T10:35:02.654Z,5516.00
2019-02-27T10:36:03.698Z,5512.00
2019-02-27T10:37:02.720Z,5508.00
2019-02-27T10:38:02.631Z,5508.00
2019-02-27T10:39:02.807Z,5504.00
2019-02-27T10:40:02.621Z,5500.00
2019-02-27T10:41:02.645Z,5500.00
2019-02-27T10:42:02.594Z,5496.00
2019-02-27T10:43:02.626Z,5500.00
2019-02-27T10:44:02.593Z,5500.00
2019-02-27T10:45:02.551Z,5496.00
2019-02-27T10:46:02.572Z,5496.00
2019-02-27T10:47:02.526Z,5496.00
2019-02-27T10:48:02.525Z,5496.00
2019-02-27T10:49:02.525Z,5496.00
2019-02-27T10:50:03.106Z,5496.00
2019-02-27T10:51:02.518Z,5500.00
2019-02-27T10:52:02.476Z,5496.00
2019-02-27T10:53:02.462Z,5504.00
2019-02-27T10:54:05.302Z,5504.00
2019-02-27T10:55:02.450Z,5504.00
2019-02-27T10:56:02.484Z,5504.00
2019-02-27T10:57:02.457Z,5504.00
2019-02-27T10:58:02.427Z,5508.00
2019-02-27T10:59:02.399Z,5508.00
2019-02-27T11:00:02.386Z,5516.00
2019-02-27T11:01:02.377Z,5516.00
2019-02-27T11:02:02.390Z,5520.00
2019-02-27T11:03:02.354Z,5528.00
2019-02-27T11:04:03.109Z,5528.00
2019-02-27T11:05:02.342Z,5536.00
2019-02-27T11:06:02.326Z,5532.00
2019-02-27T11:07:02.350Z,5536.00
2019-02-27T11:08:02.308Z,5532.00
2019-02-27T11:09:04.737Z,5540.00
2019-02-27T11:10:02.281Z,5548.00
2019-02-27T11:11:02.280Z,5544.00
2019-02-27T11:12:02.281Z,5548.00
2019-02-27T11:13:05.618Z,5552.00
2019-02-27T11:14:02.235Z,5548.00
2019-02-27T11:15:02.256Z,5548.00
2019-02-27T11:16:02.235Z,5548.00
2019-02-27T11:17:03.261Z,5544.00
2019-02-27T11:18:05.419Z,5552.00
2019-02-27T11:19:02.215Z,5560.00
2019-02-27T11:20:02.200Z,5564.00
2019-02-27T11:21:02.160Z,5572.00
2019-02-27T11:22:02.209Z,5576.00
2019-02-27T11:23:06.441Z,5584.00
2019-02-27T11:24:02.189Z,5596.00
2019-02-27T11:25:02.561Z,5608.00
2019-02-27T11:26:02.147Z,5632.00
2019-02-27T11:27:03.503Z,5656.00
2019-02-27T11:28:02.269Z,5680.00
2019-02-27T11:29:02.125Z,5720.00
2019-02-27T11:30:03.335Z,5748.00
2019-02-27T11:31:02.084Z,5796.00
2019-02-27T11:32:02.183Z,5840.00
2019-02-27T11:33:02.029Z,5856.00
2019-02-27T11:34:02.093Z,5860.00
2019-02-27T11:35:02.015Z,5832.00
2019-02-27T11:36:03.192Z,5796.00
2019-02-27T11:37:02.045Z,5772.00
2019-02-27T11:38:02.011Z,5740.00
2019-02-27T12:01:56.971Z,5724.00
2019-02-27T12:02:56.998Z,5712.00
2019-02-27T12:03:57.043Z,5716.00
2019-02-27T12:04:56.916Z,5732.00
2019-02-27T12:05:56.913Z,5720.00
2019-02-27T12:06:56.893Z,5728.00
2019-02-27T12:07:56.953Z,5724.00
2019-02-27T12:08:59.582Z,5736.00
2019-02-27T12:09:56.858Z,5740.00
2019-02-27T12:10:56.850Z,5736.00
2019-02-27T12:11:56.839Z,5732.00
2019-02-27T12:13:00.926Z,5732.00
2019-02-27T12:13:56.887Z,5732.00
2019-02-27T12:14:59.763Z,5740.00
2019-02-27T12:15:56.890Z,5744.00
2019-02-27T12:16:57.031Z,5756.00
2019-02-27T12:17:59.900Z,5756.00
2019-02-27T12:18:56.781Z,5764.00
2019-02-27T12:19:56.778Z,5776.00
2019-02-27T12:20:56.746Z,5784.00
2019-02-27T12:21:59.477Z,5788.00
2019-02-27T12:22:56.766Z,5796.00
2019-02-27T12:23:56.713Z,5800.00
2019-02-27T12:24:58.267Z,5804.00
2019-02-27T12:25:56.785Z,5808.00
2019-02-27T12:26:56.943Z,5812.00
2019-02-27T12:27:57.238Z,5812.00
2019-02-27T12:28:56.759Z,5816.00
2019-02-27T12:29:56.665Z,5824.00
2019-02-27T12:30:56.718Z,5828.00
2019-02-27T12:31:56.640Z,5840.00
2019-02-27T12:32:57.067Z,5844.00
2019-02-27T12:33:56.633Z,5868.00
2019-02-27T12:34:56.614Z,5872.00
2019-02-27T12:35:56.580Z,5872.00
2019-02-27T12:36:56.569Z,5876.00
2019-02-27T12:37:56.565Z,5880.00
2019-02-27T12:38:56.634Z,5888.00
2019-02-27T12:39:56.547Z,5892.00
2019-02-27T12:40:58.526Z,5900.00
2019-02-27T12:41:56.537Z,5904.00
2019-02-27T12:42:56.571Z,5908.00
2019-02-27T12:43:56.748Z,5932.00
2019-02-27T12:44:56.509Z,5948.00
2019-02-27T12:45:57.668Z,5956.00
2019-02-27T12:46:56.471Z,5960.00
2019-02-27T12:47:56.457Z,5968.00
2019-02-27T12:48:56.475Z,5988.00
2019-02-27T12:49:56.446Z,5992.00
2019-02-27T12:50:56.425Z,5992.00
2019-02-27T12:51:56.430Z,6008.00
2019-02-27T12:52:56.438Z,6008.00
2019-02-27T12:53:56.428Z,6012.00
2019-02-27T12:54:59.189Z,6016.00
2019-02-27T12:55:57.402Z,6036.00
2019-02-27T12:56:56.364Z,6052.00
2019-02-27T12:57:56.360Z,6068.00
2019-02-27T12:58:58.750Z,6092.00
2019-02-27T12:59:56.343Z,6112.00
2019-02-27T13:00:56.314Z,6124.00
2019-02-27T13:01:56.308Z,6156.00